Time;durP1;ratioP1;P1;durP2;ratioP2;P2;SDS_P1;SDS_P2;PMS_P1;PMS_P2;Temp;Humidity;BMP_temperature;BMP_pressure;BME280_temperature;BME280_humidity;BME280_pressure;Samples;Min_cycle;Max_cycle;Signal;HPM_P1;HPM_P2
2023/06/20 00:00:40;;;;;;;0.20;0.20;;;18.80;98.50;;;;;;5085744;28;20087;-77
2023/06/20 00:03:06;;;;;;;0.20;0.20;;;18.80;98.60;;;;;;5081737;28;20076;-76
2023/06/20 00:05:31;;;;;;;0.20;0.20;;;18.90;98.80;;;;;;5085598;28;20128;-76
2023/06/20 00:07:57;;;;;;;0.17;0.17;;;18.90;98.90;;;;;;5085432;28;20044;-76
2023/06/20 00:10:23;;;;;;;0.20;0.20;;;18.80;98.80;;;;;;5083647;28;20063;-76
2023/06/20 00:12:48;;;;;;;0.20;0.20;;;18.80;98.80;;;;;;5077010;28;20062;-76
2023/06/20 00:15:14;;;;;;;0.13;0.13;;;18.80;98.80;;;;;;5084230;28;20035;-76
2023/06/20 00:17:40;;;;;;;0.10;0.10;;;18.80;98.90;;;;;;5088367;28;20107;-76
2023/06/20 00:20:08;;;;;;;0.20;0.20;;;18.80;99.20;;;;;;5086014;28;20046;-76
2023/06/20 00:22:34;;;;;;;0.20;0.20;;;18.80;99.00;;;;;;5087022;28;20032;-76
2023/06/20 00:25:06;;;;;;;0.20;0.20;;;18.70;99.00;;;;;;5080985;28;20502;-76
2023/06/20 00:27:32;;;;;;;0.20;0.20;;;18.80;99.10;;;;;;5080838;28;20044;-76
2023/06/20 00:29:58;;;;;;;0.20;0.20;;;18.70;99.20;;;;;;5086608;28;20402;-76
2023/06/20 00:32:23;;;;;;;0.17;0.17;;;18.70;99.30;;;;;;5086235;28;20463;-76
2023/06/20 00:34:49;;;;;;;0.20;0.20;;;18.70;99.30;;;;;;5085207;28;20044;-76
2023/06/20 00:37:15;;;;;;;0.20;0.20;;;18.70;99.40;;;;;;5087102;28;20075;-76
2023/06/20 00:39:40;;;;;;;0.17;0.17;;;18.70;99.50;;;;;;5087030;28;20040;-76
2023/06/20 00:42:17;;;;;;;0.20;0.20;;;18.70;99.50;;;;;;5084177;28;20912;-76
2023/06/20 00:44:42;;;;;;;0.10;0.10;;;18.70;99.60;;;;;;5088427;28;20672;-77
2023/06/20 00:47:08;;;;;;;0.20;0.20;;;18.70;99.60;;;;;;5088053;28;20122;-76
2023/06/20 00:49:34;;;;;;;0.20;0.20;;;18.70;99.70;;;;;;5084639;28;20044;-76
2023/06/20 00:52:02;;;;;;;0.20;0.20;;;18.70;99.70;;;;;;5086239;28;20039;-76
2023/06/20 00:54:29;;;;;;;0.20;0.20;;;18.70;99.80;;;;;;5082416;28;20071;-76
2023/06/20 00:56:55;;;;;;;0.20;0.20;;;18.70;99.80;;;;;;5073219;28;20119;-76
2023/06/20 00:59:20;;;;;;;0.20;0.20;;;18.70;99.80;;;;;;5084171;28;20129;-76
2023/06/20 01:01:46;;;;;;;0.20;0.20;;;18.70;99.80;;;;;;5096034;28;20055;-75
2023/06/20 01:04:12;;;;;;;0.20;0.20;;;18.70;99.90;;;;;;5086444;28;20047;-75
2023/06/20 01:06:52;;;;;;;0.20;0.20;;;18.70;99.90;;;;;;5085959;28;20419;-75
2023/06/20 01:09:31;;;;;;;0.20;0.20;;;18.70;99.80;;;;;;5084920;28;20071;-75
2023/06/20 01:12:15;;;;;;;0.20;0.20;;;18.70;99.80;;;;;;5080104;28;20476;-75
2023/06/20 01:14:52;;;;;;;0.20;0.20;;;18.70;99.80;;;;;;5081593;28;20484;-76
2023/06/20 01:17:22;;;;;;;0.20;0.20;;;18.70;99.80;;;;;;5079313;28;20040;-76
2023/06/20 01:20:12;;;;;;;0.17;0.17;;;18.70;99.80;;;;;;5075014;28;20041;-76
2023/06/20 01:22:41;;;;;;;0.13;0.13;;;18.70;99.70;;;;;;5076840;28;20047;-75
2023/06/20 01:25:23;;;;;;;0.20;0.20;;;18.70;99.70;;;;;;5082485;28;20040;-75
2023/06/20 01:28:06;;;;;;;0.20;0.20;;;18.70;99.70;;;;;;5087916;28;20044;-75
2023/06/20 01:30:48;;;;;;;0.20;0.20;;;18.70;99.70;;;;;;5083494;28;20484;-75
2023/06/20 01:33:17;;;;;;;0.20;0.20;;;18.70;99.60;;;;;;5081825;28;20126;-75
2023/06/20 01:35:46;;;;;;;0.20;0.20;;;18.60;99.60;;;;;;5085380;28;20052;-75
2023/06/20 01:38:14;;;;;;;0.20;0.20;;;18.60;99.60;;;;;;5084621;28;20048;-76
2023/06/20 01:40:41;;;;;;;0.15;0.15;;;18.70;99.60;;;;;;5084334;28;20066;-75
2023/06/20 01:43:07;;;;;;;0.17;0.17;;;18.80;99.60;;;;;;5086752;28;20060;-75
2023/06/20 01:45:38;;;;;;;0.20;0.20;;;18.70;99.60;;;;;;5089163;28;20067;-76
2023/06/20 01:48:06;;;;;;;0.10;0.10;;;18.70;99.50;;;;;;5089857;28;20067;-76
2023/06/20 01:50:33;;;;;;;0.10;0.10;;;18.60;99.50;;;;;;5085491;28;20621;-75
2023/06/20 01:53:02;;;;;;;0.20;0.20;;;18.70;99.50;;;;;;5083626;28;20556;-75
2023/06/20 01:55:29;;;;;;;0.20;0.20;;;18.60;99.50;;;;;;5076147;28;20043;-76
2023/06/20 01:57:59;;;;;;;0.20;0.20;;;18.70;99.60;;;;;;5088214;28;20089;-75
2023/06/20 02:00:27;;;;;;;0.20;0.20;;;18.60;99.50;;;;;;5090671;28;20044;-76
2023/06/20 02:02:56;;;;;;;0.20;0.20;;;18.60;99.50;;;;;;5088698;28;20053;-75
2023/06/20 02:05:23;;;;;;;0.20;0.20;;;18.70;99.50;;;;;;5088088;28;20043;-75
2023/06/20 02:07:52;;;;;;;0.20;0.20;;;18.70;99.50;;;;;;5091261;28;20089;-75
2023/06/20 02:10:19;;;;;;;0.20;0.20;;;18.60;99.50;;;;;;5079718;28;20085;-75
2023/06/20 02:12:45;;;;;;;0.20;0.20;;;18.70;99.50;;;;;;5085193;28;20174;-75
2023/06/20 02:15:12;;;;;;;0.20;0.20;;;18.70;99.50;;;;;;5084484;28;20131;-76
2023/06/20 02:17:38;;;;;;;0.20;0.20;;;18.60;99.50;;;;;;5088887;28;20044;-76
2023/06/20 02:20:05;;;;;;;0.20;0.20;;;18.70;99.50;;;;;;5083959;28;20181;-76
2023/06/20 02:22:32;;;;;;;0.20;0.20;;;18.60;99.50;;;;;;5084328;28;20051;-75
2023/06/20 02:25:07;;;;;;;0.20;0.20;;;18.60;99.50;;;;;;5079096;28;20059;-75
2023/06/20 02:27:34;;;;;;;0.20;0.20;;;18.60;99.50;;;;;;5080500;28;20495;-76
2023/06/20 02:30:02;;;;;;;0.20;0.20;;;18.60;99.70;;;;;;5082717;28;20431;-76
2023/06/20 02:32:29;;;;;;;0.20;0.20;;;18.60;99.40;;;;;;5088750;28;20032;-76
2023/06/20 02:34:56;;;;;;;0.20;0.20;;;18.60;99.40;;;;;;5087602;28;20051;-76
2023/06/20 02:37:24;;;;;;;0.20;0.20;;;18.60;99.40;;;;;;5086112;28;20040;-76
2023/06/20 02:39:50;;;;;;;0.20;0.20;;;18.60;99.40;;;;;;5085052;28;20086;-76
2023/06/20 02:42:17;;;;;;;0.20;0.20;;;18.60;99.40;;;;;;5088870;28;20074;-76
2023/06/20 02:44:43;;;;;;;0.10;0.10;;;18.50;99.40;;;;;;5091277;28;20059;-76
2023/06/20 02:47:15;;;;;;;0.20;0.20;;;18.50;99.40;;;;;;5088166;28;20036;-76
2023/06/20 02:49:52;;;;;;;0.20;0.20;;;18.60;99.40;;;;;;5083354;28;20082;-76
2023/06/20 02:52:30;;;;;;;0.20;0.20;;;18.50;99.40;;;;;;5088049;28;20157;-76
2023/06/20 02:55:05;;;;;;;0.20;0.20;;;18.50;99.50;;;;;;5087650;28;20047;-76
2023/06/20 02:57:31;;;;;;;0.20;0.20;;;18.50;99.50;;;;;;5088455;28;20050;-75
2023/06/20 03:00:09;;;;;;;0.20;0.20;;;18.50;99.50;;;;;;5087085;28;20131;-76
2023/06/20 03:02:43;;;;;;;0.10;0.10;;;18.50;99.60;;;;;;5083812;28;20055;-76
2023/06/20 03:05:13;;;;;;;0.10;0.10;;;18.50;99.60;;;;;;5078065;28;20040;-76
2023/06/20 03:07:41;;;;;;;0.20;0.20;;;18.50;99.60;;;;;;5085872;28;20170;-75
2023/06/20 03:10:08;;;;;;;0.20;0.20;;;18.50;99.60;;;;;;5087141;28;20044;-76
2023/06/20 03:12:34;;;;;;;0.20;0.20;;;18.50;99.60;;;;;;5087316;28;20048;-76
2023/06/20 03:14:59;;;;;;;0.20;0.20;;;18.50;99.70;;;;;;5089799;28;20516;-76
2023/06/20 03:17:25;;;;;;;0.10;0.10;;;18.50;99.70;;;;;;5087012;28;20465;-75
2023/06/20 03:19:51;;;;;;;0.10;0.10;;;18.50;99.80;;;;;;5090064;28;20059;-76
2023/06/20 03:22:17;;;;;;;0.20;0.20;;;18.50;99.80;;;;;;5084265;28;20040;-75
2023/06/20 03:24:42;;;;;;;0.10;0.10;;;18.50;99.80;;;;;;5079054;28;20044;-75
2023/06/20 03:27:08;;;;;;;0.20;0.20;;;18.50;99.90;;;;;;5084873;28;20043;-75
2023/06/20 03:29:34;;;;;;;0.20;0.20;;;18.50;99.90;;;;;;5087384;28;20043;-75
2023/06/20 03:31:59;;;;;;;0.20;0.20;;;18.50;99.90;;;;;;5086505;28;20036;-75
2023/06/20 03:34:26;;;;;;;0.10;0.10;;;18.50;99.90;;;;;;5088298;28;20070;-75
2023/06/20 03:36:52;;;;;;;0.20;0.20;;;18.50;99.90;;;;;;5086486;28;20065;-75
2023/06/20 03:39:18;;;;;;;0.20;0.20;;;18.50;99.90;;;;;;5086870;28;20036;-76
2023/06/20 03:41:43;;;;;;;0.10;0.10;;;18.50;99.90;;;;;;5084843;28;20538;-75
2023/06/20 03:44:09;;;;;;;0.20;0.20;;;18.50;99.90;;;;;;5081445;28;20044;-75
2023/06/20 03:46:34;;;;;;;0.20;0.20;;;18.50;99.90;;;;;;5088177;28;20092;-75
2023/06/20 03:49:00;;;;;;;0.20;0.20;;;18.50;99.90;;;;;;5080171;28;20040;-75
2023/06/20 03:51:25;;;;;;;0.20;0.20;;;18.50;99.90;;;;;;5086431;28;20036;-75
2023/06/20 03:53:51;;;;;;;0.20;0.20;;;18.50;99.90;;;;;;5089208;28;20449;-75
2023/06/20 03:56:17;;;;;;;0.20;0.20;;;18.50;99.90;;;;;;5086374;28;20054;-76
2023/06/20 03:58:42;;;;;;;0.20;0.20;;;18.50;99.90;;;;;;5080758;28;20063;-76
2023/06/20 04:01:08;;;;;;;0.20;0.20;;;18.50;99.90;;;;;;5087671;28;20032;-75
2023/06/20 04:03:34;;;;;;;0.20;0.20;;;18.50;99.90;;;;;;5085267;28;20078;-76
2023/06/20 04:06:01;;;;;;;0.20;0.20;;;18.50;99.90;;;;;;5080540;28;20048;-75
2023/06/20 04:08:30;;;;;;;0.20;0.20;;;18.50;99.90;;;;;;5086740;28;20044;-76
2023/06/20 04:10:56;;;;;;;0.20;0.20;;;18.50;99.90;;;;;;5088962;28;20054;-76
2023/06/20 04:13:22;;;;;;;0.20;0.20;;;18.40;99.90;;;;;;5082631;28;20083;-76
2023/06/20 04:15:48;;;;;;;0.20;0.20;;;18.50;99.90;;;;;;5088174;28;20063;-76
2023/06/20 04:18:14;;;;;;;0.20;0.20;;;18.50;99.90;;;;;;5085795;28;20035;-76
2023/06/20 04:20:41;;;;;;;0.20;0.20;;;18.60;99.90;;;;;;5086561;28;20097;-76
2023/06/20 04:23:07;;;;;;;0.20;0.20;;;18.60;99.90;;;;;;5075169;28;20141;-76
2023/06/20 04:25:34;;;;;;;0.13;0.13;;;18.60;99.90;;;;;;5085089;28;20573;-75
2023/06/20 04:27:59;;;;;;;0.17;0.17;;;18.60;99.90;;;;;;5088076;28;20036;-76
2023/06/20 04:30:25;;;;;;;0.20;0.20;;;18.60;99.90;;;;;;5079015;28;20066;-76
2023/06/20 04:32:53;;;;;;;0.20;0.20;;;18.60;99.90;;;;;;5082777;28;20043;-76
2023/06/20 04:35:19;;;;;;;0.20;0.20;;;18.70;99.90;;;;;;5081910;28;20098;-75
2023/06/20 04:37:48;;;;;;;0.20;0.20;;;18.70;99.90;;;;;;5081406;28;20048;-75
2023/06/20 04:40:14;;;;;;;0.20;0.20;;;18.70;99.90;;;;;;5088455;28;20351;-76
2023/06/20 04:42:39;;;;;;;0.20;0.20;;;18.70;99.90;;;;;;5086034;28;20555;-75
2023/06/20 04:45:06;;;;;;;0.20;0.20;;;18.80;99.90;;;;;;5082006;28;20056;-75
2023/06/20 04:47:32;;;;;;;0.20;0.20;;;18.90;99.90;;;;;;5082710;28;20126;-74
2023/06/20 04:50:03;;;;;;;0.20;0.20;;;18.90;99.90;;;;;;5083139;28;20123;-75
2023/06/20 04:52:32;;;;;;;0.20;0.20;;;19.10;99.90;;;;;;5086877;28;20651;-75
2023/06/20 04:55:02;;;;;;;0.10;0.10;;;18.90;99.90;;;;;;5085004;28;20055;-74
2023/06/20 04:57:32;;;;;;;0.20;0.20;;;19.10;99.90;;;;;;5087272;28;20044;-75
2023/06/20 04:59:58;;;;;;;0.20;0.20;;;19.00;99.90;;;;;;5085574;28;20115;-75
2023/06/20 05:02:24;;;;;;;0.20;0.20;;;19.00;99.90;;;;;;5089640;28;20044;-74
2023/06/20 05:04:51;;;;;;;0.20;0.20;;;19.10;99.90;;;;;;5086470;28;20047;-74
2023/06/20 05:07:16;;;;;;;0.20;0.20;;;19.00;99.90;;;;;;5091187;28;20048;-74
2023/06/20 05:09:42;;;;;;;0.20;0.20;;;19.10;99.90;;;;;;5090536;28;20064;-74
2023/06/20 05:12:07;;;;;;;0.20;0.20;;;19.20;99.90;;;;;;5084629;28;20500;-75
2023/06/20 05:14:33;;;;;;;0.20;0.20;;;19.00;99.90;;;;;;5089613;28;20039;-75
2023/06/20 05:16:59;;;;;;;0.10;0.10;;;19.10;99.90;;;;;;5088464;28;20048;-76
2023/06/20 05:19:24;;;;;;;0.20;0.20;;;19.10;99.90;;;;;;5087626;28;20048;-75
2023/06/20 05:21:50;;;;;;;0.20;0.20;;;19.10;99.90;;;;;;5086571;28;20075;-75
2023/06/20 05:24:16;;;;;;;0.20;0.20;;;19.10;99.90;;;;;;5085268;28;20036;-76
2023/06/20 05:26:41;;;;;;;0.20;0.20;;;19.10;99.80;;;;;;5089356;28;20040;-76
2023/06/20 05:29:07;;;;;;;0.20;0.20;;;19.10;99.80;;;;;;5091291;28;20035;-76
2023/06/20 05:31:33;;;;;;;0.20;0.20;;;19.20;99.80;;;;;;5089186;28;20036;-76
2023/06/20 05:33:59;;;;;;;0.20;0.20;;;19.20;99.80;;;;;;5092599;28;20145;-76
2023/06/20 05:36:25;;;;;;;0.20;0.20;;;19.20;99.80;;;;;;5084650;28;20054;-75
2023/06/20 05:38:50;;;;;;;0.20;0.20;;;19.20;99.80;;;;;;5082322;28;20044;-75
2023/06/20 05:41:16;;;;;;;0.20;0.20;;;19.20;99.80;;;;;;5085022;28;20038;-76
2023/06/20 05:43:44;;;;;;;0.10;0.10;;;19.20;99.80;;;;;;5086407;28;20406;-77
2023/06/20 05:46:10;;;;;;;0.20;0.20;;;19.30;99.80;;;;;;5088532;28;20048;-78
2023/06/20 05:48:36;;;;;;;0.20;0.20;;;19.20;99.70;;;;;;5090199;28;20075;-76
2023/06/20 05:51:03;;;;;;;0.20;0.20;;;19.30;99.70;;;;;;5089888;28;20514;-76
2023/06/20 05:53:29;;;;;;;0.20;0.20;;;19.30;99.70;;;;;;5091228;28;20054;-76
2023/06/20 05:55:55;;;;;;;0.20;0.20;;;19.40;99.70;;;;;;5088949;28;20040;-76
2023/06/20 05:58:20;;;;;;;0.17;0.17;;;19.30;99.60;;;;;;5087495;28;20036;-76
2023/06/20 06:00:46;;;;;;;0.10;0.10;;;19.40;99.60;;;;;;5074801;28;20040;-76
2023/06/20 06:03:12;;;;;;;0.10;0.10;;;19.40;99.70;;;;;;5085038;28;20041;-75
2023/06/20 06:05:39;;;;;;;0.10;0.10;;;19.40;99.70;;;;;;5080657;28;20046;-75
2023/06/20 06:08:05;;;;;;;0.20;0.20;;;19.40;99.70;;;;;;5093023;28;20475;-76
2023/06/20 06:10:32;;;;;;;0.17;0.17;;;19.40;99.60;;;;;;5088340;28;20048;-75
2023/06/20 06:12:58;;;;;;;0.20;0.20;;;19.50;99.70;;;;;;5088225;28;20067;-77
2023/06/20 06:15:23;;;;;;;0.10;0.10;;;19.40;99.60;;;;;;5090388;28;20456;-77
2023/06/20 06:17:49;;;;;;;0.10;0.10;;;19.50;99.60;;;;;;5087408;28;20560;-74
2023/06/20 06:20:17;;;;;;;0.20;0.20;;;19.50;99.60;;;;;;5089547;28;20032;-75
2023/06/20 06:22:43;;;;;;;0.15;0.15;;;19.50;99.60;;;;;;5082411;28;20131;-75
2023/06/20 06:25:09;;;;;;;0.20;0.20;;;19.50;99.50;;;;;;5084200;28;20135;-75
2023/06/20 06:27:35;;;;;;;0.20;0.20;;;19.60;99.60;;;;;;5087252;28;20044;-75
2023/06/20 06:30:03;;;;;;;0.20;0.20;;;19.60;99.60;;;;;;5091745;28;20073;-75
2023/06/20 06:32:29;;;;;;;0.10;0.10;;;19.60;99.60;;;;;;5080042;28;20040;-74
2023/06/20 06:34:59;;;;;;;0.20;0.20;;;19.60;99.60;;;;;;5085244;28;20394;-74
2023/06/20 06:37:27;;;;;;;0.20;0.20;;;19.60;99.50;;;;;;5087992;28;20044;-75
2023/06/20 06:39:58;;;;;;;0.20;0.20;;;19.70;99.60;;;;;;5082222;28;20447;-75
2023/06/20 06:42:24;;;;;;;0.20;0.20;;;19.70;99.60;;;;;;5083073;28;20036;-74
2023/06/20 06:44:50;;;;;;;0.20;0.20;;;19.80;99.60;;;;;;5080322;28;20083;-75
2023/06/20 06:47:16;;;;;;;0.20;0.20;;;19.80;99.60;;;;;;5086877;28;20067;-74
2023/06/20 06:49:41;;;;;;;0.30;0.30;;;19.80;99.60;;;;;;5086489;28;20078;-75
2023/06/20 06:52:08;;;;;;;0.20;0.20;;;19.90;99.60;;;;;;5088524;28;20495;-76
2023/06/20 06:54:33;;;;;;;0.20;0.20;;;19.90;99.60;;;;;;5084329;28;20178;-76
2023/06/20 06:56:59;;;;;;;0.10;0.10;;;20.00;99.70;;;;;;5087875;28;20511;-76
2023/06/20 06:59:25;;;;;;;0.20;0.20;;;20.00;99.60;;;;;;5087721;28;20062;-76
2023/06/20 07:01:51;;;;;;;0.20;0.20;;;20.10;99.90;;;;;;5088875;28;20044;-76
2023/06/20 07:04:17;;;;;;;0.20;0.20;;;20.10;99.70;;;;;;5090231;28;20548;-76
2023/06/20 07:06:43;;;;;;;0.20;0.20;;;20.10;99.70;;;;;;5088557;28;20044;-78
2023/06/20 07:09:09;;;;;;;0.15;0.15;;;20.20;99.80;;;;;;5087638;28;20040;-76
2023/06/20 07:11:35;;;;;;;0.20;0.20;;;20.30;99.80;;;;;;5086793;28;20249;-76
2023/06/20 07:14:00;;;;;;;0.20;0.20;;;20.30;99.70;;;;;;5086896;28;20041;-76
2023/06/20 07:16:26;;;;;;;0.20;0.20;;;20.30;99.60;;;;;;5085621;28;20044;-76
2023/06/20 07:18:52;;;;;;;0.20;0.20;;;20.40;99.70;;;;;;5081648;28;20043;-77
2023/06/20 07:21:17;;;;;;;0.20;0.20;;;20.40;99.70;;;;;;5086511;28;20399;-76
2023/06/20 07:23:43;;;;;;;0.20;0.20;;;20.50;99.70;;;;;;5085209;28;20044;-76
2023/06/20 07:26:09;;;;;;;0.20;0.20;;;20.60;99.70;;;;;;5082034;28;20093;-76
2023/06/20 07:28:36;;;;;;;0.20;0.20;;;20.60;99.70;;;;;;5078297;28;20039;-76
2023/06/20 07:31:02;;;;;;;0.20;0.20;;;20.60;99.70;;;;;;5074105;28;20555;-76
2023/06/20 07:33:28;;;;;;;0.20;0.20;;;20.70;99.70;;;;;;5084466;28;20040;-76
2023/06/20 07:35:53;;;;;;;0.20;0.20;;;20.80;99.70;;;;;;5078042;28;20046;-77
2023/06/20 07:38:19;;;;;;;0.10;0.10;;;20.90;99.70;;;;;;5087765;28;20449;-76
2023/06/20 07:40:45;;;;;;;0.20;0.20;;;20.90;99.60;;;;;;5068616;28;20052;-78
2023/06/20 07:43:10;;;;;;;0.20;0.20;;;21.00;99.70;;;;;;5078751;28;20671;-84
2023/06/20 07:45:36;;;;;;;0.20;0.20;;;21.00;99.40;;;;;;5077957;28;20057;-82
2023/06/20 07:48:03;;;;;;;0.20;0.20;;;21.10;99.60;;;;;;5082958;28;20048;-77
2023/06/20 07:50:30;;;;;;;0.20;0.20;;;21.10;99.60;;;;;;5083071;28;20445;-77
2023/06/20 07:52:55;;;;;;;0.20;0.20;;;21.10;99.60;;;;;;5088237;28;20032;-77
2023/06/20 07:55:21;;;;;;;0.20;0.20;;;21.20;99.70;;;;;;5082326;28;20032;-78
2023/06/20 07:57:48;;;;;;;0.20;0.20;;;21.30;99.80;;;;;;5076690;28;20105;-78
2023/06/20 08:00:14;;;;;;;0.20;0.20;;;21.40;99.80;;;;;;5084120;28;20036;-78
2023/06/20 08:02:39;;;;;;;0.20;0.20;;;21.40;99.80;;;;;;5085005;28;20368;-78
2023/06/20 08:05:08;;;;;;;0.20;0.20;;;21.50;99.90;;;;;;5074667;28;20058;-78
2023/06/20 08:07:35;;;;;;;0.20;0.20;;;21.60;99.90;;;;;;5076312;28;20056;-78
2023/06/20 08:10:02;;;;;;;0.20;0.20;;;21.70;99.90;;;;;;5083244;28;20040;-78
2023/06/20 08:12:28;;;;;;;0.20;0.20;;;21.80;99.90;;;;;;5082940;28;20046;-78
2023/06/20 08:14:53;;;;;;;0.20;0.20;;;21.90;99.90;;;;;;5082015;28;20028;-84
2023/06/20 08:17:19;;;;;;;0.20;0.20;;;22.00;99.90;;;;;;5096001;28;20052;-78
2023/06/20 08:19:45;;;;;;;0.20;0.20;;;22.10;99.80;;;;;;5089298;28;20040;-77
2023/06/20 08:22:10;;;;;;;0.15;0.15;;;22.20;99.80;;;;;;5088607;28;20051;-77
2023/06/20 08:24:36;;;;;;;0.20;0.20;;;22.20;99.70;;;;;;5088907;28;20036;-78
2023/06/20 08:27:03;;;;;;;0.20;0.20;;;22.30;99.70;;;;;;5088706;28;20048;-77
2023/06/20 08:29:29;;;;;;;0.28;0.28;;;22.40;99.60;;;;;;5085985;28;20059;-77
2023/06/20 08:31:55;;;;;;;0.20;0.20;;;22.40;99.50;;;;;;5085762;28;20145;-78
2023/06/20 08:34:20;;;;;;;0.20;0.20;;;22.60;99.50;;;;;;5079922;28;20037;-77
2023/06/20 08:36:46;;;;;;;0.20;0.20;;;22.70;99.40;;;;;;5083917;28;20074;-77
2023/06/20 08:39:12;;;;;;;0.20;0.20;;;22.70;99.30;;;;;;5086363;28;20043;-78
2023/06/20 08:41:38;;;;;;;0.20;0.20;;;22.80;99.10;;;;;;5087456;28;20123;-78
2023/06/20 08:44:04;;;;;;;0.20;0.20;;;22.90;99.00;;;;;;5087553;28;20559;-77
2023/06/20 08:46:31;;;;;;;0.20;0.20;;;22.90;98.80;;;;;;5107859;28;21358;-78
2023/06/20 08:48:57;;;;;;;0.20;0.20;;;22.90;98.70;;;;;;5105731;28;20048;-77
2023/06/20 08:51:26;;;;;;;0.20;0.20;;;22.90;98.60;;;;;;5104586;28;20193;-78
2023/06/20 08:53:54;;;;;;;0.20;0.20;;;22.90;98.60;;;;;;5088198;28;20052;-77
2023/06/20 08:56:20;;;;;;;0.20;0.20;;;23.00;98.60;;;;;;5090444;28;20040;-78
2023/06/20 08:58:46;;;;;;;0.20;0.20;;;23.10;98.50;;;;;;5105624;28;20043;-78
2023/06/20 09:01:12;;;;;;;0.20;0.20;;;23.10;98.40;;;;;;5109351;28;20521;-79
2023/06/20 09:03:38;;;;;;;0.20;0.20;;;23.10;98.40;;;;;;5106012;28;20074;-77
2023/06/20 09:06:05;;;;;;;0.20;0.20;;;23.10;98.40;;;;;;5107048;28;20031;-78
2023/06/20 09:08:39;;;;;;;0.20;0.20;;;23.20;98.30;;;;;;5106266;28;20055;-77
2023/06/20 09:11:09;;;;;;;0.20;0.20;;;23.20;98.30;;;;;;5100528;28;20566;-78
2023/06/20 09:15:21;;;;;;;0.20;0.20;;;23.30;98.20;;;;;;5094846;27;20476;-78
2023/06/20 09:17:51;;;;;;;0.20;0.20;;;23.40;98.40;;;;;;5051028;28;20044;-78
2023/06/20 09:20:18;;;;;;;0.20;0.20;;;23.50;98.30;;;;;;5062918;28;20078;-79
2023/06/20 09:22:44;;;;;;;0.20;0.20;;;23.60;98.20;;;;;;5071874;28;20063;-78
2023/06/20 09:25:11;;;;;;;0.20;0.20;;;23.60;98.20;;;;;;5082522;28;20043;-79
2023/06/20 09:27:40;;;;;;;0.20;0.20;;;23.60;98.00;;;;;;5056042;28;20135;-80
2023/06/20 09:30:06;;;;;;;0.20;0.20;;;23.70;97.90;;;;;;5060976;28;21562;-79
2023/06/20 09:32:37;;;;;;;0.20;0.20;;;23.70;97.80;;;;;;5059792;28;20052;-79
2023/06/20 09:35:06;;;;;;;0.20;0.20;;;23.70;97.80;;;;;;5067407;28;20660;-78
2023/06/20 09:37:49;;;;;;;0.20;0.20;;;23.70;97.80;;;;;;5059183;28;20087;-78
2023/06/20 09:40:16;;;;;;;0.20;0.20;;;23.80;97.90;;;;;;5076652;28;20140;-78
2023/06/20 09:42:44;;;;;;;0.20;0.20;;;23.90;97.90;;;;;;5055671;28;20119;-79
2023/06/20 09:45:11;;;;;;;0.20;0.20;;;24.00;98.00;;;;;;5078442;28;20051;-78
2023/06/20 09:47:39;;;;;;;0.20;0.20;;;24.00;97.90;;;;;;5060204;28;20028;-78
2023/06/20 09:50:19;;;;;;;0.20;0.20;;;24.10;97.80;;;;;;5073188;28;20358;-78
2023/06/20 09:53:15;;;;;;;0.20;0.20;;;24.20;97.80;;;;;;5048251;28;20090;-78
2023/06/20 09:55:41;;;;;;;0.20;0.20;;;24.20;97.70;;;;;;5065412;28;20075;-78
2023/06/20 09:58:09;;;;;;;0.20;0.20;;;24.20;97.70;;;;;;5076055;28;20093;-78
2023/06/20 10:00:36;;;;;;;0.20;0.20;;;24.30;97.70;;;;;;5070146;28;20564;-78
2023/06/20 10:03:06;;;;;;;0.20;0.20;;;24.30;97.60;;;;;;5065820;28;20051;-78
2023/06/20 10:05:33;;;;;;;0.20;0.20;;;24.30;97.60;;;;;;5055481;28;20497;-78
2023/06/20 10:08:00;;;;;;;0.20;0.20;;;24.40;97.50;;;;;;5068538;28;20048;-77
2023/06/20 10:10:26;;;;;;;0.20;0.20;;;24.30;97.40;;;;;;5066471;28;20052;-78
2023/06/20 10:12:52;;;;;;;0.20;0.20;;;24.40;97.50;;;;;;5054046;28;20137;-78
2023/06/20 10:15:19;;;;;;;0.20;0.20;;;24.40;97.40;;;;;;5061367;28;20451;-78
2023/06/20 10:17:49;;;;;;;0.20;0.20;;;24.50;97.50;;;;;;5085430;28;20300;-79
2023/06/20 10:20:37;;;;;;;0.20;0.20;;;24.60;97.60;;;;;;5062113;28;20495;-78
2023/06/20 10:23:09;;;;;;;0.20;0.20;;;24.70;97.40;;;;;;5058741;28;20387;-77
2023/06/20 10:25:52;;;;;;;0.20;0.20;;;24.70;97.30;;;;;;5072064;28;20053;-77
2023/06/20 10:28:21;;;;;;;0.45;0.35;;;24.80;97.30;;;;;;5053403;28;20051;-77
2023/06/20 10:30:49;;;;;;;0.20;0.20;;;24.80;97.20;;;;;;5063684;28;20442;-78
2023/06/20 10:33:17;;;;;;;0.20;0.20;;;24.90;97.10;;;;;;5057842;28;20049;-78
2023/06/20 10:36:10;;;;;;;0.20;0.20;;;24.90;97.10;;;;;;5034333;28;20115;-78
2023/06/20 10:38:37;;;;;;;0.20;0.20;;;24.90;97.00;;;;;;5047439;28;20499;-77
2023/06/20 10:41:12;;;;;;;0.20;0.20;;;25.00;96.90;;;;;;5067709;28;20053;-78
2023/06/20 10:43:59;;;;;;;0.20;0.20;;;25.10;96.80;;;;;;5059808;28;20062;-78
2023/06/20 10:46:28;;;;;;;0.20;0.20;;;25.20;96.40;;;;;;5064411;28;20091;-78
2023/06/20 10:48:54;;;;;;;0.20;0.20;;;25.20;96.60;;;;;;5033371;28;20044;-78
2023/06/20 10:51:19;;;;;;;0.20;0.20;;;25.20;96.60;;;;;;5061324;28;20040;-78
2023/06/20 10:53:45;;;;;;;0.20;0.20;;;25.30;96.50;;;;;;5071080;28;20062;-78
2023/06/20 10:56:27;;;;;;;0.20;0.20;;;25.40;96.50;;;;;;5052564;28;20048;-78
2023/06/20 10:58:53;;;;;;;0.20;0.20;;;25.40;96.30;;;;;;5036462;28;20052;-78
2023/06/20 11:01:19;;;;;;;0.20;0.20;;;25.50;96.20;;;;;;5042196;28;20041;-78
2023/06/20 11:03:46;;;;;;;0.20;0.20;;;25.50;96.20;;;;;;5064400;28;20581;-78
2023/06/20 11:06:18;;;;;;;0.22;0.22;;;25.60;96.20;;;;;;5035304;28;20040;-77
2023/06/20 11:08:47;;;;;;;0.20;0.20;;;25.70;96.00;;;;;;5037892;28;20037;-78
2023/06/20 11:11:12;;;;;;;0.20;0.20;;;25.70;96.00;;;;;;5043797;28;20036;-78
2023/06/20 11:13:39;;;;;;;0.20;0.20;;;25.80;96.00;;;;;;5038230;28;20048;-78
2023/06/20 11:16:05;;;;;;;0.20;0.20;;;25.90;96.00;;;;;;5067918;28;20060;-78
2023/06/20 11:18:31;;;;;;;0.20;0.20;;;25.90;96.00;;;;;;5038716;28;20775;-78
2023/06/20 11:20:59;;;;;;;0.20;0.20;;;26.00;96.00;;;;;;5066151;28;20048;-78
2023/06/20 11:23:34;;;;;;;0.30;0.20;;;26.10;96.10;;;;;;5050207;28;20052;-78
2023/06/20 11:26:00;;;;;;;0.38;0.35;;;26.20;96.00;;;;;;5070453;28;20150;-78
2023/06/20 11:28:26;;;;;;;0.20;0.20;;;26.30;95.90;;;;;;5053116;28;20075;-78
2023/06/20 11:30:52;;;;;;;0.30;0.30;;;26.40;95.80;;;;;;5054071;28;20053;-78
2023/06/20 11:33:18;;;;;;;0.20;0.20;;;26.50;95.70;;;;;;5037630;28;20087;-78
2023/06/20 11:35:44;;;;;;;0.20;0.20;;;26.60;95.60;;;;;;5047474;28;20052;-78
2023/06/20 11:38:13;;;;;;;0.20;0.20;;;26.70;95.50;;;;;;5043722;28;20098;-77
2023/06/20 11:40:40;;;;;;;0.20;0.20;;;26.80;95.50;;;;;;5046095;28;20045;-78
2023/06/20 11:43:06;;;;;;;0.20;0.20;;;26.90;95.40;;;;;;5046568;28;20124;-77
2023/06/20 11:45:33;;;;;;;0.20;0.20;;;27.00;95.20;;;;;;5064366;28;20134;-77
2023/06/20 11:48:14;;;;;;;0.20;0.20;;;27.20;94.70;;;;;;5045785;28;20051;-78
2023/06/20 11:50:42;;;;;;;0.20;0.20;;;27.20;94.90;;;;;;5045399;28;22090;-77
2023/06/20 11:53:18;;;;;;;0.20;0.20;;;27.40;94.80;;;;;;5035253;28;20041;-77
2023/06/20 11:55:46;;;;;;;0.20;0.20;;;27.40;94.70;;;;;;5060066;28;20048;-79
2023/06/20 11:58:12;;;;;;;0.20;0.20;;;27.50;94.70;;;;;;5067041;28;20040;-78
2023/06/20 12:00:38;;;;;;;0.20;0.20;;;27.80;94.30;;;;;;5041789;28;20052;-78
2023/06/20 12:03:13;;;;;;;0.20;0.20;;;27.80;94.40;;;;;;5065466;28;20037;-78
2023/06/20 12:05:40;;;;;;;0.20;0.20;;;27.90;94.40;;;;;;5037509;28;20051;-78
2023/06/20 12:08:05;;;;;;;0.20;0.20;;;28.00;94.20;;;;;;5066112;28;20040;-78
2023/06/20 12:10:33;;;;;;;0.20;0.20;;;28.20;94.30;;;;;;5048146;28;20047;-78
2023/06/20 12:13:03;;;;;;;0.20;0.20;;;28.20;94.00;;;;;;5054422;28;20032;-78
2023/06/20 12:15:29;;;;;;;0.47;0.47;;;28.30;93.90;;;;;;5040328;28;20049;-79
2023/06/20 12:17:54;;;;;;;0.20;0.20;;;28.40;93.70;;;;;;5067805;28;20454;-80
2023/06/20 12:20:20;;;;;;;0.20;0.20;;;28.40;93.70;;;;;;5035700;28;20032;-78
2023/06/20 12:22:45;;;;;;;0.20;0.20;;;28.40;93.60;;;;;;5045967;28;20111;-78
2023/06/20 12:25:11;;;;;;;0.20;0.20;;;28.50;93.70;;;;;;5042486;28;20041;-78
2023/06/20 12:27:37;;;;;;;0.20;0.20;;;28.50;93.60;;;;;;5041365;28;20056;-78
2023/06/20 12:30:03;;;;;;;0.20;0.20;;;28.60;93.30;;;;;;5052604;28;20044;-79
2023/06/20 12:32:28;;;;;;;0.20;0.20;;;28.60;93.30;;;;;;5048111;28;20098;-78
2023/06/20 12:34:54;;;;;;;0.20;0.20;;;28.50;93.20;;;;;;5037392;28;20052;-78
2023/06/20 12:37:19;;;;;;;0.20;0.20;;;28.50;93.10;;;;;;5033814;28;20477;-78
2023/06/20 12:39:45;;;;;;;0.20;0.20;;;28.60;93.20;;;;;;5031172;28;20048;-78
2023/06/20 12:42:15;;;;;;;0.20;0.20;;;28.60;93.00;;;;;;5038232;28;20476;-78
2023/06/20 12:44:42;;;;;;;0.10;0.10;;;28.60;92.90;;;;;;5067032;28;20048;-78
2023/06/20 12:47:09;;;;;;;0.20;0.20;;;28.70;92.70;;;;;;5066591;28;20033;-77
2023/06/20 12:49:35;;;;;;;0.20;0.20;;;28.80;92.60;;;;;;5032955;28;20056;-78
2023/06/20 12:52:00;;;;;;;0.20;0.20;;;28.90;92.40;;;;;;5063577;28;20035;-78